This is the latest recevied weather packets stored in our database for station/object EA6AMI-5. If no packets are shown the sender has not sent any weather packets the latest 1 day(s).
| Time | Temp. | Humidity | Pressure | Rain* | Wind** | Luminosity | Snow |
|---|---|---|---|---|---|---|---|
| 1778064844 | 22.78° C | 46% | 1012 hPa | 0 mm | - | 952 W/m² | - |
| 1778064304 | 22.22° C | 48% | 1011.8 hPa | 0 mm | - | 910 W/m² | - |
| 1778063224 | 21.67° C | 51% | 1012 hPa | 0 mm | - | 904 W/m² | - |
| 1778062144 | 21.11° C | 52% | 1012 hPa | 0 mm | - | 829 W/m² | - |
| 1778061604 | 21.67° C | 52% | 1012.3 hPa | 0 mm | - | 824 W/m² | - |
| 1778060164 | 21.11° C | 53% | 1012.2 hPa | 0 mm | - | 721 W/m² | - |
| 1778059624 | 20.56° C | 57% | 1012 hPa | 0 mm | - | 684 W/m² | - |
| 1778058004 | 20° C | 56% | 1012 hPa | 0 mm | - | 589 W/m² | - |
| 1778057104 | 19.44° C | 59% | 1012 hPa | 0 mm | - | 545 W/m² | - |
| 1778055484 | 19.44° C | 64% | 1012.3 hPa | 0 mm | - | 432 W/m² | - |
| 1778052424 | 17.78° C | 70% | 1012.3 hPa | 0 mm | - | 293 W/m² | - |
| 1778051344 | 17.22° C | 77% | 1012.1 hPa | 0 mm | - | 244 W/m² | - |
| 1778049904 | 15° C | 84% | 1012.2 hPa | 0 mm | - | 63 W/m² | - |
| 1778049364 | 14.44° C | 84% | 1012.4 hPa | 0 mm | - | 59 W/m² | - |
| 1778048824 | 14.44° C | 83% | 1012.5 hPa | 0 mm | - | 45 W/m² | - |
| 1778048284 | 14.44° C | 86% | 1012.5 hPa | 0 mm | - | 55 W/m² | - |
| 1778047744 | 14.44° C | 87% | 1012.5 hPa | 0 mm | - | 39 W/m² | - |
| 1778044684 | 12.22° C | 84% | 1012 hPa | 0 mm | - | 18 W/m² | - |
| 1778043604 | 12.22° C | 85% | 1011.8 hPa | 0 mm | - | 7 W/m² | - |
| 1778042704 | 12.22° C | 83% | 1011.8 hPa | 0 mm | - | 2 W/m² | - |
| 1778040543 | 12.22° C | 84% | 1011.6 hPa | 0 mm | - | 0 W/m² | - |
| 1778039104 | 12.78° C | 86% | 1011.2 hPa | 0 mm | - | 0 W/m² | - |
| 1778038024 | 12.22° C | 86% | 1011.1 hPa | 0 mm | - | 0 W/m² | - |
| 1778037483 | 12.22° C | 86% | 1011.2 hPa | 0 mm | - | 0 W/m² | - |
| 1778036043 | 12.78° C | 83% | 1010.9 hPa | 0 mm | - | 0 W/m² | - |
* Rain latest hour (hover to see other rain measurements)
** Current wind speed in m/s (hover to see current wind gust speed)